createdAt,value
2022-09-11T00:01:33.353Z,6.50
2022-09-11T00:04:38.612Z,2.88
2022-09-11T00:07:44.330Z,3.95
2022-09-11T00:10:49.950Z,3.03
2022-09-11T00:13:56.858Z,3.60
2022-09-11T00:17:03.003Z,4.72
2022-09-11T00:20:09.911Z,3.60
2022-09-11T00:23:18.042Z,4.15
2022-09-11T00:26:24.916Z,6.43
2022-09-11T00:29:31.292Z,4.07
2022-09-11T00:32:37.220Z,2.67
2022-09-11T00:35:43.381Z,3.63
2022-09-11T00:38:50.328Z,3.15
2022-09-11T00:41:56.241Z,3.03
2022-09-11T00:45:07.444Z,2.13
2022-09-11T00:48:23.127Z,5.55
2022-09-11T00:51:33.688Z,3.45
2022-09-11T00:54:58.165Z,3.95
2022-09-11T00:58:07.238Z,2.63
2022-09-11T01:01:14.876Z,3.35
2022-09-11T01:04:22.209Z,3.17
2022-09-11T01:07:29.945Z,2.10
2022-09-11T01:11:05.456Z,2.35
2022-09-11T01:14:46.115Z,2.63
2022-09-11T01:18:13.403Z,1.98
2022-09-11T01:21:34.372Z,3.88
2022-09-11T01:25:04.790Z,3.65
2022-09-11T01:28:15.987Z,2.55
2022-09-11T01:31:26.420Z,4.07
2022-09-11T01:34:53.447Z,2.42
2022-09-11T01:38:06.677Z,1.75
2022-09-11T01:41:18.703Z,1.95
2022-09-11T01:44:37.282Z,2.33
2022-09-11T01:47:48.299Z,2.70
2022-09-11T01:50:55.891Z,2.63
2022-09-11T01:54:04.737Z,2.38
2022-09-11T01:57:28.002Z,5.78
2022-09-11T02:00:37.867Z,3.47
2022-09-11T02:04:01.292Z,2.90
2022-09-11T02:07:19.968Z,2.10
2022-09-11T02:10:36.350Z,5.18
2022-09-11T02:14:16.335Z,4.28
2022-09-11T02:17:46.676Z,3.58
2022-09-11T02:20:53.829Z,2.67
2022-09-11T02:24:00.918Z,2.83
2022-09-11T02:27:10.463Z,2.60
2022-09-11T02:30:15.825Z,5.32
2022-09-11T02:33:36.353Z,4.13
2022-09-11T02:37:11.807Z,3.92
2022-09-11T02:41:03.239Z,3.35
2022-09-11T02:44:45.032Z,5.95
2022-09-11T02:48:15.610Z,4.70
2022-09-11T02:51:40.210Z,1.85
2022-09-11T02:55:11.268Z,2.42
2022-09-11T02:58:29.458Z,5.22
2022-09-11T03:01:53.584Z,2.72
2022-09-11T03:05:02.119Z,5.35
2022-09-11T03:08:08.668Z,2.35
2022-09-11T03:11:17.830Z,7.57
2022-09-11T03:14:25.348Z,3.17
2022-09-11T03:17:30.663Z,2.00
2022-09-11T03:20:36.174Z,5.20
2022-09-11T03:23:41.877Z,3.15
2022-09-11T03:26:47.905Z,1.52
2022-09-11T03:29:57.041Z,4.85
2022-09-11T03:33:03.458Z,2.15
2022-09-11T03:36:10.810Z,3.97
2022-09-11T03:39:16.643Z,2.45
2022-09-11T03:42:22.460Z,5.03
2022-09-11T03:45:28.302Z,4.82
2022-09-11T03:48:35.989Z,5.57
2022-09-11T03:51:41.754Z,4.07
2022-09-11T03:54:47.741Z,1.38
2022-09-11T03:57:53.994Z,1.70
2022-09-11T04:01:00.906Z,4.47
2022-09-11T04:04:08.052Z,2.05
2022-09-11T04:07:18.814Z,3.33
2022-09-11T04:10:26.624Z,1.75
2022-09-11T04:13:36.617Z,4.47
2022-09-11T04:16:45.622Z,4.28
2022-09-11T04:19:51.141Z,2.95
2022-09-11T04:22:57.227Z,2.25
2022-09-11T04:26:04.604Z,2.47
2022-09-11T04:29:12.795Z,5.25
2022-09-11T04:32:18.310Z,5.22
2022-09-11T04:35:24.271Z,4.88
2022-09-11T04:38:34.565Z,3.53
2022-09-11T04:41:41.321Z,2.88
2022-09-11T04:44:49.425Z,2.20
2022-09-11T04:47:54.762Z,6.68
2022-09-11T04:51:06.425Z,4.00
2022-09-11T04:54:18.248Z,4.10
2022-09-11T04:57:24.985Z,3.85
2022-09-11T05:00:31.299Z,3.38
2022-09-11T05:03:38.074Z,3.08
2022-09-11T05:06:48.625Z,2.70
2022-09-11T05:09:55.935Z,2.78
2022-09-11T05:13:01.880Z,1.63
2022-09-11T05:16:17.368Z,1.40
2022-09-11T05:19:23.404Z,4.30
2022-09-11T05:22:29.541Z,2.20
2022-09-11T05:25:37.588Z,1.85
2022-09-11T05:28:43.253Z,3.25
2022-09-11T05:31:50.255Z,4.43
2022-09-11T05:34:57.757Z,3.53
2022-09-11T05:38:03.863Z,1.95
2022-09-11T05:41:12.748Z,3.15
2022-09-11T05:44:19.927Z,2.90
2022-09-11T05:47:26.070Z,1.25
2022-09-11T05:50:34.805Z,2.42
2022-09-11T05:53:41.674Z,3.78
2022-09-11T05:56:54.960Z,2.80
2022-09-11T06:00:05.903Z,3.35
2022-09-11T06:03:17.741Z,4.50
2022-09-11T06:06:24.560Z,3.50
2022-09-11T06:09:32.280Z,3.28
2022-09-11T06:12:37.956Z,1.63
2022-09-11T06:15:49.170Z,2.70
2022-09-11T06:18:55.183Z,2.50
2022-09-11T06:22:01.392Z,1.63
2022-09-11T06:25:12.121Z,5.05
2022-09-11T06:28:18.444Z,1.63
2022-09-11T06:31:27.083Z,3.65
2022-09-11T06:34:34.061Z,5.75
2022-09-11T06:37:44.045Z,6.20
2022-09-11T06:40:50.829Z,7.28
2022-09-11T06:43:57.198Z,2.97
2022-09-11T06:47:05.942Z,1.88
2022-09-11T06:50:14.796Z,3.20
2022-09-11T06:53:44.617Z,2.45
2022-09-11T06:56:52.359Z,1.80
2022-09-11T06:59:58.365Z,3.95
2022-09-11T07:03:08.736Z,2.65
2022-09-11T07:06:18.550Z,2.67
2022-09-11T07:09:25.827Z,2.65
2022-09-11T07:12:34.583Z,5.20
2022-09-11T07:15:41.968Z,3.33
2022-09-11T07:18:49.005Z,3.88
2022-09-11T07:22:03.654Z,3.40
2022-09-11T07:25:11.795Z,4.85
2022-09-11T07:28:20.593Z,3.38
2022-09-11T07:31:29.771Z,3.90
2022-09-11T07:34:37.264Z,3.70
2022-09-11T07:37:50.613Z,2.90
2022-09-11T07:40:58.471Z,4.30
2022-09-11T07:44:06.394Z,5.80
2022-09-11T07:47:12.974Z,2.95
2022-09-11T07:50:24.600Z,5.55
2022-09-11T07:53:51.634Z,3.53
2022-09-11T07:56:58.447Z,4.25
2022-09-11T08:00:05.314Z,4.97
2022-09-11T08:03:26.073Z,5.32
2022-09-11T08:06:36.938Z,6.10
2022-09-11T08:09:52.836Z,4.90
2022-09-11T08:13:09.309Z,5.40
2022-09-11T08:16:17.254Z,4.95
2022-09-11T08:19:25.262Z,6.40
2022-09-11T08:22:35.018Z,4.32
2022-09-11T08:25:41.884Z,7.22
2022-09-11T08:28:50.610Z,15.43
2022-09-11T08:32:00.331Z,6.45
2022-09-11T08:35:09.353Z,4.00
2022-09-11T08:38:15.224Z,8.43
2022-09-11T08:41:56.877Z,8.95
2022-09-11T08:45:07.445Z,7.88
2022-09-11T08:48:17.255Z,10.75
2022-09-11T08:51:23.052Z,4.57
2022-09-11T08:54:28.472Z,8.32
2022-09-11T08:57:43.180Z,4.70
2022-09-11T09:00:57.254Z,4.38
2022-09-11T09:04:29.678Z,5.50
2022-09-11T09:07:57.263Z,7.43
2022-09-11T09:11:29.220Z,4.95
2022-09-11T09:14:48.687Z,4.20
2022-09-11T09:18:01.832Z,3.85
2022-09-11T09:21:28.801Z,3.30
2022-09-11T09:24:43.716Z,5.55
2022-09-11T09:28:00.806Z,3.67
2022-09-11T09:31:09.471Z,4.03
2022-09-11T09:34:21.395Z,1.92
2022-09-11T09:37:28.457Z,3.85
2022-09-11T09:40:36.293Z,2.35
2022-09-11T09:44:00.210Z,6.15
2022-09-11T09:47:11.057Z,3.85
2022-09-11T09:50:34.420Z,2.95
2022-09-11T09:54:01.824Z,2.22
2022-09-11T09:57:11.052Z,5.57
2022-09-11T10:00:20.251Z,1.30
2022-09-11T10:03:26.498Z,5.95
2022-09-11T10:06:32.547Z,4.68
2022-09-11T10:09:47.228Z,3.20
2022-09-11T10:13:07.777Z,3.53
2022-09-11T10:16:26.314Z,3.10
2022-09-11T10:19:44.615Z,4.18
2022-09-11T10:22:51.241Z,3.47
2022-09-11T10:25:56.918Z,5.65
2022-09-11T10:29:18.672Z,9.20
2022-09-11T10:32:25.084Z,19.45
2022-09-11T10:35:32.738Z,23.92
2022-09-11T10:38:48.362Z,13.73
2022-09-11T10:41:59.621Z,12.50
2022-09-11T10:45:17.299Z,6.10
2022-09-11T10:48:23.556Z,3.58
2022-09-11T10:51:33.249Z,6.63
2022-09-11T10:54:51.322Z,2.63
2022-09-11T10:58:23.606Z,3.35
2022-09-11T11:01:29.618Z,12.88
2022-09-11T11:04:35.491Z,13.88
2022-09-11T11:08:27.609Z,4.97
2022-09-11T11:12:24.605Z,6.82
2022-09-11T11:15:54.148Z,5.32
2022-09-11T11:19:28.469Z,6.63
2022-09-11T11:23:03.234Z,31.10
2022-09-11T11:26:44.911Z,4.07
2022-09-11T11:30:17.444Z,4.88
2022-09-11T11:33:43.109Z,3.03
2022-09-11T11:37:17.186Z,4.57
2022-09-11T11:40:36.026Z,4.53
2022-09-11T11:43:44.385Z,5.35
2022-09-11T11:46:52.647Z,4.18
2022-09-11T11:50:40.763Z,6.13
2022-09-11T11:54:00.285Z,5.18
2022-09-11T11:57:18.824Z,5.13
2022-09-11T12:00:24.548Z,7.45
2022-09-11T12:03:40.773Z,6.05
2022-09-11T12:06:46.956Z,9.80
2022-09-11T12:09:55.284Z,7.88
2022-09-11T12:13:06.215Z,6.80
2022-09-11T12:16:31.794Z,8.20
2022-09-11T12:19:37.728Z,7.20
2022-09-11T12:22:45.209Z,6.97
2022-09-11T12:26:03.835Z,6.97
2022-09-11T12:29:15.723Z,7.65
2022-09-11T12:32:29.297Z,5.85
2022-09-11T12:35:54.231Z,6.13
2022-09-11T12:39:34.680Z,5.40
2022-09-11T12:42:40.445Z,4.30
2022-09-11T12:45:48.668Z,6.68
2022-09-11T12:49:21.124Z,7.93
2022-09-11T12:52:49.734Z,4.55
2022-09-11T12:55:59.451Z,5.80
2022-09-11T12:59:09.874Z,6.68
2022-09-11T13:02:39.086Z,4.63
2022-09-11T13:06:14.043Z,5.05
2022-09-11T13:09:38.926Z,3.80
2022-09-11T13:12:52.597Z,18.92
2022-09-11T13:15:59.185Z,5.22
2022-09-11T13:19:22.467Z,9.95
2022-09-11T13:22:35.031Z,7.03
2022-09-11T13:25:46.097Z,9.85
2022-09-11T13:28:55.596Z,6.28
2022-09-11T13:32:11.739Z,3.78
2022-09-11T13:35:25.823Z,5.38
2022-09-11T13:38:34.606Z,3.13
2022-09-11T13:41:44.597Z,5.47
2022-09-11T13:44:56.641Z,2.95
2022-09-11T13:48:03.312Z,5.00
2022-09-11T13:51:35.911Z,6.32
2022-09-11T13:54:48.277Z,7.47
2022-09-11T13:58:03.407Z,5.70
2022-09-11T14:01:17.193Z,3.85
2022-09-11T14:04:27.642Z,6.50
2022-09-11T14:07:35.201Z,5.93
2022-09-11T14:10:44.437Z,5.93
2022-09-11T14:13:58.458Z,4.60
2022-09-11T14:17:04.988Z,3.70
2022-09-11T14:20:20.288Z,7.70
2022-09-11T14:23:28.886Z,3.40
2022-09-11T14:26:35.241Z,2.67
2022-09-11T14:29:53.786Z,4.18
2022-09-11T14:33:26.288Z,3.80
2022-09-11T14:36:32.705Z,2.78
2022-09-11T14:40:11.467Z,6.72
2022-09-11T14:43:24.612Z,3.83
2022-09-11T14:46:31.039Z,3.20
2022-09-11T14:49:37.262Z,3.30
2022-09-11T14:52:43.278Z,7.55
2022-09-11T14:55:50.358Z,4.47
2022-09-11T14:58:56.274Z,4.07
2022-09-11T15:02:02.165Z,2.13
2022-09-11T15:05:16.177Z,4.07
2022-09-11T15:08:22.647Z,3.03
2022-09-11T15:11:28.635Z,3.63
2022-09-11T15:14:55.098Z,3.13
2022-09-11T15:18:01.229Z,3.72
2022-09-11T15:21:07.337Z,3.60
2022-09-11T15:24:13.188Z,2.13
2022-09-11T15:27:19.943Z,4.28
2022-09-11T15:30:27.886Z,3.17
2022-09-11T15:33:34.020Z,3.20
2022-09-11T15:36:41.676Z,5.25
2022-09-11T15:39:51.088Z,6.82
2022-09-11T15:42:57.540Z,9.20
2022-09-11T15:46:11.793Z,6.25
2022-09-11T15:49:19.694Z,5.60
2022-09-11T15:52:27.697Z,3.13
2022-09-11T15:55:35.712Z,2.25
2022-09-11T15:58:42.983Z,5.97
2022-09-11T16:01:49.374Z,6.80
2022-09-11T16:04:55.794Z,5.30
2022-09-11T16:08:01.798Z,3.40
2022-09-11T16:11:10.301Z,10.13
2022-09-11T16:14:23.941Z,4.88
2022-09-11T16:17:32.642Z,7.90
2022-09-11T16:20:44.202Z,7.45
2022-09-11T16:23:55.003Z,3.92
2022-09-11T16:27:02.329Z,4.18
2022-09-11T16:30:32.675Z,6.93
2022-09-11T16:33:40.547Z,6.28
2022-09-11T16:36:46.799Z,6.60
2022-09-11T16:39:52.885Z,5.90
2022-09-11T16:42:58.859Z,9.23
2022-09-11T16:46:04.996Z,7.95
2022-09-11T16:49:19.021Z,6.60
2022-09-11T16:52:26.388Z,9.45
2022-09-11T16:55:37.384Z,7.72
2022-09-11T16:58:44.893Z,7.32
2022-09-11T17:01:52.746Z,8.60
2022-09-11T17:04:58.467Z,10.50
2022-09-11T17:08:05.215Z,6.90
2022-09-11T17:11:14.067Z,9.27
2022-09-11T17:14:22.437Z,7.65
2022-09-11T17:17:31.882Z,8.00
2022-09-11T17:20:39.160Z,7.78
2022-09-11T17:23:45.675Z,10.25
2022-09-11T17:26:51.787Z,11.20
2022-09-11T17:29:58.117Z,10.25
2022-09-11T17:33:04.467Z,9.18
2022-09-11T17:36:13.194Z,11.20
2022-09-11T17:39:18.866Z,11.98
2022-09-11T17:42:25.142Z,13.55
2022-09-11T17:45:31.569Z,10.00
2022-09-11T17:48:39.755Z,12.52
2022-09-11T17:51:46.101Z,13.20
2022-09-11T17:54:52.019Z,13.23
2022-09-11T17:57:57.800Z,10.18
2022-09-11T18:01:03.538Z,10.63
2022-09-11T18:04:10.416Z,12.20
2022-09-11T18:07:17.122Z,16.05
2022-09-11T18:10:24.057Z,12.40
2022-09-11T18:13:34.798Z,9.45
2022-09-11T18:16:41.283Z,8.90
2022-09-11T18:19:47.648Z,9.43
2022-09-11T18:22:54.065Z,9.93
2022-09-11T18:26:01.203Z,13.32
2022-09-11T18:29:10.939Z,14.48
2022-09-11T18:32:16.572Z,10.82
2022-09-11T18:35:22.099Z,9.63
2022-09-11T18:38:32.955Z,14.15
2022-09-11T18:41:39.452Z,9.95
2022-09-11T18:44:45.195Z,9.98
2022-09-11T18:47:53.207Z,11.48
2022-09-11T18:51:03.386Z,10.80
2022-09-11T18:54:17.754Z,12.95
2022-09-11T18:57:25.795Z,11.50
2022-09-11T19:00:32.561Z,9.80
2022-09-11T19:03:42.349Z,10.60
2022-09-11T19:06:48.516Z,11.73
2022-09-11T19:09:54.570Z,12.73
2022-09-11T19:13:00.912Z,11.82
2022-09-11T19:16:07.329Z,11.13
2022-09-11T19:19:13.247Z,10.88
2022-09-11T19:22:22.837Z,10.40
2022-09-11T19:25:30.228Z,10.82
2022-09-11T19:28:36.005Z,12.65
2022-09-11T19:31:42.571Z,11.05
2022-09-11T19:34:48.364Z,8.20
2022-09-11T19:37:56.184Z,12.77
2022-09-11T19:41:02.172Z,12.05
2022-09-11T19:44:12.513Z,9.45
2022-09-11T19:47:18.422Z,8.98
2022-09-11T19:50:24.394Z,9.55
2022-09-11T19:53:30.530Z,15.90
2022-09-11T19:56:38.054Z,9.38
2022-09-11T19:59:44.229Z,8.50
2022-09-11T20:02:50.115Z,9.20
2022-09-11T20:05:55.940Z,9.07
2022-09-11T20:09:27.225Z,7.68
2022-09-11T20:12:36.575Z,8.32
2022-09-11T20:15:42.943Z,8.30
2022-09-11T20:18:48.535Z,10.82
2022-09-11T20:21:54.496Z,12.05
2022-09-11T20:25:00.613Z,12.18
2022-09-11T20:28:06.549Z,8.43
2022-09-11T20:31:37.085Z,12.40
2022-09-11T20:34:45.966Z,11.55
2022-09-11T20:37:52.863Z,11.23
2022-09-11T20:41:00.513Z,9.63
2022-09-11T20:44:06.373Z,9.35
2022-09-11T20:47:13.701Z,11.70
2022-09-11T20:50:19.990Z,8.93
2022-09-11T20:53:27.764Z,13.55
2022-09-11T20:56:33.831Z,14.07
2022-09-11T20:59:39.615Z,14.05
2022-09-11T21:02:45.389Z,10.50
2022-09-11T21:05:51.006Z,11.50
2022-09-11T21:09:04.048Z,14.25
2022-09-11T21:12:09.916Z,10.48
2022-09-11T21:15:15.465Z,13.57
2022-09-11T21:18:21.047Z,10.60
2022-09-11T21:21:29.032Z,10.15
2022-09-11T21:24:35.187Z,14.98
2022-09-11T21:27:40.590Z,14.13
2022-09-11T21:30:46.490Z,10.73
2022-09-11T21:33:52.358Z,11.20
2022-09-11T21:36:58.223Z,12.10
2022-09-11T21:40:05.487Z,14.45
2022-09-11T21:43:11.328Z,10.43
2022-09-11T21:46:17.034Z,12.85
2022-09-11T21:49:22.903Z,10.00
2022-09-11T21:52:29.969Z,8.23
2022-09-11T21:55:44.515Z,10.02
2022-09-11T21:58:51.268Z,14.00
2022-09-11T22:01:58.139Z,10.77
2022-09-11T22:05:04.612Z,9.93
2022-09-11T22:08:15.916Z,9.32
2022-09-11T22:11:22.076Z,11.13
2022-09-11T22:14:27.810Z,11.07
2022-09-11T22:17:33.488Z,12.77
2022-09-11T22:20:40.997Z,11.85
2022-09-11T22:23:46.676Z,14.27
2022-09-11T22:26:52.957Z,11.32
2022-09-11T22:29:58.418Z,9.77
2022-09-11T22:33:04.927Z,10.70
2022-09-11T22:36:15.467Z,12.07
2022-09-11T22:39:22.016Z,8.80
2022-09-11T22:42:27.618Z,10.00
2022-09-11T22:45:33.561Z,10.25
2022-09-11T22:48:40.693Z,11.95
2022-09-11T22:51:46.317Z,11.57
2022-09-11T22:54:51.980Z,9.32
2022-09-11T22:57:58.249Z,11.05
2022-09-11T23:01:04.215Z,13.18
2022-09-11T23:04:10.482Z,15.90
2022-09-11T23:12:46.070Z,11.35
2022-09-11T23:15:51.640Z,10.45
2022-09-11T23:19:01.843Z,11.02
2022-09-11T23:22:07.219Z,10.88
2022-09-11T23:25:13.900Z,11.90
2022-09-11T23:28:19.731Z,14.15
2022-09-11T23:31:34.941Z,14.13
2022-09-11T23:34:40.227Z,12.27
2022-09-11T23:37:46.147Z,14.13
2022-09-11T23:40:51.729Z,11.88
2022-09-11T23:43:57.347Z,13.52
2022-09-11T23:47:02.950Z,10.00
2022-09-11T23:50:09.749Z,11.80
2022-09-11T23:53:15.032Z,11.02
2022-09-11T23:56:22.661Z,15.75
2022-09-11T23:59:28.284Z,12.48
